sensor_id;sensor_type;location;lat;lon;timestamp;temperature;humidity
4054;DHT22;2042;47.956;9.222;2023-05-02T00:00:27;7.40;25.50
4054;DHT22;2042;47.956;9.222;2023-05-02T00:02:53;7.40;26.20
4054;DHT22;2042;47.956;9.222;2023-05-02T00:05:18;7.40;26.40
4054;DHT22;2042;47.956;9.222;2023-05-02T00:07:44;7.40;26.30
4054;DHT22;2042;47.956;9.222;2023-05-02T00:10:10;7.40;26.10
4054;DHT22;2042;47.956;9.222;2023-05-02T00:12:36;7.40;25.80
4054;DHT22;2042;47.956;9.222;2023-05-02T00:15:03;7.30;25.50
4054;DHT22;2042;47.956;9.222;2023-05-02T00:17:29;7.30;25.10
4054;DHT22;2042;47.956;9.222;2023-05-02T00:19:55;7.20;24.80
4054;DHT22;2042;47.956;9.222;2023-05-02T00:22:20;7.20;24.80
4054;DHT22;2042;47.956;9.222;2023-05-02T00:24:46;7.10;25.00
4054;DHT22;2042;47.956;9.222;2023-05-02T00:27:12;7.10;25.00
4054;DHT22;2042;47.956;9.222;2023-05-02T00:29:38;7.10;25.30
4054;DHT22;2042;47.956;9.222;2023-05-02T00:32:05;7.10;25.60
4054;DHT22;2042;47.956;9.222;2023-05-02T00:34:31;7.10;25.60
4054;DHT22;2042;47.956;9.222;2023-05-02T00:36:57;7.00;25.40
4054;DHT22;2042;47.956;9.222;2023-05-02T00:39:23;7.00;25.40
4054;DHT22;2042;47.956;9.222;2023-05-02T00:41:55;7.00;25.70
4054;DHT22;2042;47.956;9.222;2023-05-02T00:44:21;7.00;25.60
4054;DHT22;2042;47.956;9.222;2023-05-02T00:46:47;6.90;25.30
4054;DHT22;2042;47.956;9.222;2023-05-02T00:49:12;6.90;25.30
4054;DHT22;2042;47.956;9.222;2023-05-02T00:51:39;6.90;25.10
4054;DHT22;2042;47.956;9.222;2023-05-02T00:54:05;6.80;25.20
4054;DHT22;2042;47.956;9.222;2023-05-02T00:56:30;6.80;25.40
4054;DHT22;2042;47.956;9.222;2023-05-02T00:58:56;6.80;25.90
4054;DHT22;2042;47.956;9.222;2023-05-02T01:12:03;7.10;28.20
4054;DHT22;2042;47.956;9.222;2023-05-02T01:14:34;7.20;28.40
4054;DHT22;2042;47.956;9.222;2023-05-02T01:17:07;7.20;28.40
4054;DHT22;2042;47.956;9.222;2023-05-02T01:19:39;7.20;28.60
4054;DHT22;2042;47.956;9.222;2023-05-02T01:22:08;7.30;29.00
4054;DHT22;2042;47.956;9.222;2023-05-02T01:27:24;7.40;29.40
4054;DHT22;2042;47.956;9.222;2023-05-02T01:29:52;7.50;29.40
4054;DHT22;2042;47.956;9.222;2023-05-02T01:32:21;7.50;29.30
4054;DHT22;2042;47.956;9.222;2023-05-02T01:34:49;7.50;29.30
4054;DHT22;2042;47.956;9.222;2023-05-02T01:37:17;7.50;29.10
4054;DHT22;2042;47.956;9.222;2023-05-02T01:39:43;7.50;29.00
4054;DHT22;2042;47.956;9.222;2023-05-02T01:42:10;7.50;29.10
4054;DHT22;2042;47.956;9.222;2023-05-02T01:44:37;7.50;29.00
4054;DHT22;2042;47.956;9.222;2023-05-02T01:47:06;7.50;29.00
4054;DHT22;2042;47.956;9.222;2023-05-02T01:49:34;7.50;29.00
4054;DHT22;2042;47.956;9.222;2023-05-02T01:52:06;7.50;29.10
4054;DHT22;2042;47.956;9.222;2023-05-02T01:54:34;7.50;29.20
4054;DHT22;2042;47.956;9.222;2023-05-02T01:57:02;7.50;29.50
4054;DHT22;2042;47.956;9.222;2023-05-02T01:59:30;7.60;29.60
4054;DHT22;2042;47.956;9.222;2023-05-02T02:01:58;7.60;29.70
4054;DHT22;2042;47.956;9.222;2023-05-02T02:04:27;7.70;30.00
4054;DHT22;2042;47.956;9.222;2023-05-02T02:07:06;7.70;30.00
4054;DHT22;2042;47.956;9.222;2023-05-02T02:09:33;7.80;30.30
4054;DHT22;2042;47.956;9.222;2023-05-02T02:14:33;7.90;30.40
4054;DHT22;2042;47.956;9.222;2023-05-02T02:17:01;7.90;30.30
4054;DHT22;2042;47.956;9.222;2023-05-02T02:19:29;7.90;30.20
4054;DHT22;2042;47.956;9.222;2023-05-02T02:21:57;7.90;30.20
4054;DHT22;2042;47.956;9.222;2023-05-02T02:24:23;7.90;30.30
4054;DHT22;2042;47.956;9.222;2023-05-02T02:26:50;7.90;30.40
4054;DHT22;2042;47.956;9.222;2023-05-02T02:29:16;8.00;30.50
4054;DHT22;2042;47.956;9.222;2023-05-02T02:31:41;8.00;30.50
4054;DHT22;2042;47.956;9.222;2023-05-02T02:34:07;8.00;30.50
4054;DHT22;2042;47.956;9.222;2023-05-02T02:36:34;8.00;30.60
4054;DHT22;2042;47.956;9.222;2023-05-02T02:42:35;8.00;30.60
4054;DHT22;2042;47.956;9.222;2023-05-02T02:51:31;8.10;30.70
4054;DHT22;2042;47.956;9.222;2023-05-02T02:57:59;8.10;30.60
4054;DHT22;2042;47.956;9.222;2023-05-02T03:00:15;8.10;30.50
4054;DHT22;2042;47.956;9.222;2023-05-02T03:02:42;8.00;30.40
4054;DHT22;2042;47.956;9.222;2023-05-02T03:05:10;8.00;30.40
4054;DHT22;2042;47.956;9.222;2023-05-02T03:07:37;8.00;30.50
4054;DHT22;2042;47.956;9.222;2023-05-02T03:10:03;8.00;30.50
4054;DHT22;2042;47.956;9.222;2023-05-02T03:12:30;8.00;30.60
4054;DHT22;2042;47.956;9.222;2023-05-02T03:17:49;7.90;30.40
4054;DHT22;2042;47.956;9.222;2023-05-02T03:20:14;7.90;30.40
4054;DHT22;2042;47.956;9.222;2023-05-02T03:22:40;7.90;30.40
4054;DHT22;2042;47.956;9.222;2023-05-02T03:25:06;7.90;30.40
4054;DHT22;2042;47.956;9.222;2023-05-02T03:27:32;7.80;30.30
4054;DHT22;2042;47.956;9.222;2023-05-02T03:29:57;7.80;30.10
4054;DHT22;2042;47.956;9.222;2023-05-02T03:32:23;7.70;30.00
4054;DHT22;2042;47.956;9.222;2023-05-02T03:34:49;7.70;29.90
4054;DHT22;2042;47.956;9.222;2023-05-02T03:37:14;7.60;29.60
4054;DHT22;2042;47.956;9.222;2023-05-02T03:39:40;7.60;29.30
4054;DHT22;2042;47.956;9.222;2023-05-02T03:42:05;7.50;28.30
4054;DHT22;2042;47.956;9.222;2023-05-02T03:44:31;7.30;27.30
4054;DHT22;2042;47.956;9.222;2023-05-02T03:46:56;7.20;26.40
4054;DHT22;2042;47.956;9.222;2023-05-02T03:49:22;7.00;25.70
4054;DHT22;2042;47.956;9.222;2023-05-02T03:51:48;6.80;25.30
4054;DHT22;2042;47.956;9.222;2023-05-02T03:54:13;6.70;25.30
4054;DHT22;2042;47.956;9.222;2023-05-02T03:56:39;6.60;25.00
4054;DHT22;2042;47.956;9.222;2023-05-02T03:59:05;6.50;25.00
4054;DHT22;2042;47.956;9.222;2023-05-02T04:01:30;6.40;25.40
4054;DHT22;2042;47.956;9.222;2023-05-02T04:03:56;6.40;25.40
4054;DHT22;2042;47.956;9.222;2023-05-02T04:06:22;6.30;25.80
4054;DHT22;2042;47.956;9.222;2023-05-02T04:08:47;6.30;25.80
4054;DHT22;2042;47.956;9.222;2023-05-02T04:11:14;6.20;25.50
4054;DHT22;2042;47.956;9.222;2023-05-02T04:13:39;6.10;26.00
4054;DHT22;2042;47.956;9.222;2023-05-02T04:16:05;6.10;26.00
4054;DHT22;2042;47.956;9.222;2023-05-02T04:18:31;6.10;26.50
4054;DHT22;2042;47.956;9.222;2023-05-02T04:20:56;6.10;26.80
4054;DHT22;2042;47.956;9.222;2023-05-02T04:23:22;6.10;27.40
4054;DHT22;2042;47.956;9.222;2023-05-02T04:25:52;6.20;28.00
4054;DHT22;2042;47.956;9.222;2023-05-02T04:28:20;6.20;28.40
4054;DHT22;2042;47.956;9.222;2023-05-02T04:30:47;6.30;29.10
4054;DHT22;2042;47.956;9.222;2023-05-02T04:33:13;6.30;29.40
4054;DHT22;2042;47.956;9.222;2023-05-02T04:35:39;6.40;29.50
4054;DHT22;2042;47.956;9.222;2023-05-02T04:38:05;6.40;29.60
4054;DHT22;2042;47.956;9.222;2023-05-02T04:40:32;6.50;29.60
4054;DHT22;2042;47.956;9.222;2023-05-02T04:42:57;6.50;29.50
4054;DHT22;2042;47.956;9.222;2023-05-02T04:45:24;6.40;29.30
4054;DHT22;2042;47.956;9.222;2023-05-02T04:47:50;6.40;29.50
4054;DHT22;2042;47.956;9.222;2023-05-02T04:50:16;6.50;30.40
4054;DHT22;2042;47.956;9.222;2023-05-02T04:52:41;6.70;31.30
4054;DHT22;2042;47.956;9.222;2023-05-02T04:55:07;6.80;31.70
4054;DHT22;2042;47.956;9.222;2023-05-02T04:57:33;6.90;31.70
4054;DHT22;2042;47.956;9.222;2023-05-02T04:59:58;6.90;31.40
4054;DHT22;2042;47.956;9.222;2023-05-02T05:02:24;6.90;31.30
4054;DHT22;2042;47.956;9.222;2023-05-02T05:04:52;6.90;31.60
4054;DHT22;2042;47.956;9.222;2023-05-02T05:07:18;7.00;32.50
4054;DHT22;2042;47.956;9.222;2023-05-02T05:09:44;7.10;32.90
4054;DHT22;2042;47.956;9.222;2023-05-02T05:12:10;7.30;33.60
4054;DHT22;2042;47.956;9.222;2023-05-02T05:14:35;7.40;33.80
4054;DHT22;2042;47.956;9.222;2023-05-02T05:17:01;7.50;33.90
4054;DHT22;2042;47.956;9.222;2023-05-02T05:19:27;7.50;33.80
4054;DHT22;2042;47.956;9.222;2023-05-02T05:21:53;7.60;34.10
4054;DHT22;2042;47.956;9.222;2023-05-02T05:24:18;7.70;34.40
4054;DHT22;2042;47.956;9.222;2023-05-02T05:26:44;7.70;34.40
4054;DHT22;2042;47.956;9.222;2023-05-02T05:29:10;7.80;34.60
4054;DHT22;2042;47.956;9.222;2023-05-02T05:31:36;7.90;34.80
4054;DHT22;2042;47.956;9.222;2023-05-02T05:34:01;8.00;35.00
4054;DHT22;2042;47.956;9.222;2023-05-02T05:36:29;8.00;35.10
4054;DHT22;2042;47.956;9.222;2023-05-02T05:38:55;8.20;35.50
4054;DHT22;2042;47.956;9.222;2023-05-02T05:41:21;8.30;36.10
4054;DHT22;2042;47.956;9.222;2023-05-02T05:43:48;8.50;36.70
4054;DHT22;2042;47.956;9.222;2023-05-02T05:46:14;8.70;37.20
4054;DHT22;2042;47.956;9.222;2023-05-02T05:48:40;8.80;37.30
4054;DHT22;2042;47.956;9.222;2023-05-02T05:51:06;8.80;36.60
4054;DHT22;2042;47.956;9.222;2023-05-02T05:53:32;8.80;36.50
4054;DHT22;2042;47.956;9.222;2023-05-02T05:55:58;8.90;37.00
4054;DHT22;2042;47.956;9.222;2023-05-02T05:58:24;9.10;37.60
4054;DHT22;2042;47.956;9.222;2023-05-02T06:00:49;9.20;38.10
4054;DHT22;2042;47.956;9.222;2023-05-02T06:03:15;9.40;38.30
4054;DHT22;2042;47.956;9.222;2023-05-02T06:05:41;9.50;38.10
4054;DHT22;2042;47.956;9.222;2023-05-02T06:08:07;9.60;38.40
4054;DHT22;2042;47.956;9.222;2023-05-02T06:10:33;9.70;38.60
4054;DHT22;2042;47.956;9.222;2023-05-02T06:12:58;9.70;38.00
4054;DHT22;2042;47.956;9.222;2023-05-02T06:15:24;9.80;37.90
4054;DHT22;2042;47.956;9.222;2023-05-02T06:17:50;9.80;38.20
4054;DHT22;2042;47.956;9.222;2023-05-02T06:20:16;9.90;38.30
4054;DHT22;2042;47.956;9.222;2023-05-02T06:22:42;10.00;37.40
4054;DHT22;2042;47.956;9.222;2023-05-02T06:25:08;10.00;37.40
4054;DHT22;2042;47.956;9.222;2023-05-02T06:27:34;10.10;37.30
4054;DHT22;2042;47.956;9.222;2023-05-02T06:29:59;10.10;36.20
4054;DHT22;2042;47.956;9.222;2023-05-02T06:32:29;10.00;36.10
4054;DHT22;2042;47.956;9.222;2023-05-02T06:34:55;10.10;36.40
4054;DHT22;2042;47.956;9.222;2023-05-02T06:37:21;10.20;37.10
4054;DHT22;2042;47.956;9.222;2023-05-02T06:39:46;10.30;37.40
4054;DHT22;2042;47.956;9.222;2023-05-02T06:42:12;10.30;36.90
4054;DHT22;2042;47.956;9.222;2023-05-02T06:44:38;10.40;37.00
4054;DHT22;2042;47.956;9.222;2023-05-02T06:47:04;10.50;37.20
4054;DHT22;2042;47.956;9.222;2023-05-02T06:49:30;10.50;36.40
4054;DHT22;2042;47.956;9.222;2023-05-02T06:51:56;10.60;36.70
4054;DHT22;2042;47.956;9.222;2023-05-02T06:54:22;10.70;37.00
4054;DHT22;2042;47.956;9.222;2023-05-02T06:56:47;10.80;37.60
4054;DHT22;2042;47.956;9.222;2023-05-02T06:59:13;10.90;37.30
4054;DHT22;2042;47.956;9.222;2023-05-02T07:01:42;11.10;37.00
4054;DHT22;2042;47.956;9.222;2023-05-02T07:04:07;11.20;36.50
4054;DHT22;2042;47.956;9.222;2023-05-02T07:06:33;11.30;36.60
4054;DHT22;2042;47.956;9.222;2023-05-02T07:08:59;11.50;36.70
4054;DHT22;2042;47.956;9.222;2023-05-02T07:11:24;11.60;35.20
4054;DHT22;2042;47.956;9.222;2023-05-02T07:13:50;11.70;32.60
4054;DHT22;2042;47.956;9.222;2023-05-02T07:16:16;11.70;30.00
4054;DHT22;2042;47.956;9.222;2023-05-02T07:18:42;11.80;29.10
4054;DHT22;2042;47.956;9.222;2023-05-02T07:21:07;11.90;28.80
4054;DHT22;2042;47.956;9.222;2023-05-02T07:23:33;12.00;27.60
4054;DHT22;2042;47.956;9.222;2023-05-02T07:25:59;12.00;25.40
4054;DHT22;2042;47.956;9.222;2023-05-02T07:28:24;12.10;25.40
4054;DHT22;2042;47.956;9.222;2023-05-02T07:30:50;12.20;24.60
4054;DHT22;2042;47.956;9.222;2023-05-02T07:33:16;12.30;22.00
4054;DHT22;2042;47.956;9.222;2023-05-02T07:35:42;12.40;18.30
4054;DHT22;2042;47.956;9.222;2023-05-02T07:38:07;12.40;17.20
4054;DHT22;2042;47.956;9.222;2023-05-02T07:40:33;12.50;15.90
4054;DHT22;2042;47.956;9.222;2023-05-02T07:43:00;12.60;14.40
4054;DHT22;2042;47.956;9.222;2023-05-02T07:45:26;12.70;13.40
4054;DHT22;2042;47.956;9.222;2023-05-02T07:47:52;12.70;11.70
4054;DHT22;2042;47.956;9.222;2023-05-02T07:50:17;12.80;11.10
4054;DHT22;2042;47.956;9.222;2023-05-02T07:52:43;12.90;11.00
4054;DHT22;2042;47.956;9.222;2023-05-02T07:55:08;13.00;10.40
4054;DHT22;2042;47.956;9.222;2023-05-02T07:57:34;13.10;7.60
4054;DHT22;2042;47.956;9.222;2023-05-02T08:00:00;13.10;3.20
4054;DHT22;2042;47.956;9.222;2023-05-02T08:02:26;13.00;1.00
4054;DHT22;2042;47.956;9.222;2023-05-02T08:04:51;12.90;1.00
4054;DHT22;2042;47.956;9.222;2023-05-02T08:07:18;12.80;1.00
4054;DHT22;2042;47.956;9.222;2023-05-02T08:09:43;12.70;1.00
4054;DHT22;2042;47.956;9.222;2023-05-02T08:12:09;12.70;1.00
4054;DHT22;2042;47.956;9.222;2023-05-02T08:14:35;12.80;1.00
4054;DHT22;2042;47.956;9.222;2023-05-02T08:17:00;13.00;1.00
4054;DHT22;2042;47.956;9.222;2023-05-02T08:19:26;13.20;1.00
4054;DHT22;2042;47.956;9.222;2023-05-02T08:21:55;13.30;1.00
4054;DHT22;2042;47.956;9.222;2023-05-02T08:24:21;13.40;1.00
4054;DHT22;2042;47.956;9.222;2023-05-02T08:26:46;13.50;1.00
4054;DHT22;2042;47.956;9.222;2023-05-02T08:29:12;13.50;1.00
4054;DHT22;2042;47.956;9.222;2023-05-02T08:31:39;13.70;1.00
4054;DHT22;2042;47.956;9.222;2023-05-02T08:34:05;13.70;1.00
4054;DHT22;2042;47.956;9.222;2023-05-02T08:36:30;13.70;1.00
4054;DHT22;2042;47.956;9.222;2023-05-02T08:38:56;13.80;1.00
4054;DHT22;2042;47.956;9.222;2023-05-02T08:41:22;14.00;1.00
4054;DHT22;2042;47.956;9.222;2023-05-02T08:43:48;14.20;1.00
4054;DHT22;2042;47.956;9.222;2023-05-02T08:46:15;14.30;1.00
4054;DHT22;2042;47.956;9.222;2023-05-02T08:48:43;14.50;1.00
4054;DHT22;2042;47.956;9.222;2023-05-02T08:51:12;14.70;1.00
4054;DHT22;2042;47.956;9.222;2023-05-02T08:53:38;14.90;1.00
4054;DHT22;2042;47.956;9.222;2023-05-02T08:56:11;15.20;1.00
4054;DHT22;2042;47.956;9.222;2023-05-02T08:58:39;15.20;1.00
4054;DHT22;2042;47.956;9.222;2023-05-02T09:01:16;15.50;1.00
4054;DHT22;2042;47.956;9.222;2023-05-02T09:03:43;15.90;1.00
4054;DHT22;2042;47.956;9.222;2023-05-02T09:06:20;16.50;1.00
4054;DHT22;2042;47.956;9.222;2023-05-02T09:08:48;17.30;1.00
4054;DHT22;2042;47.956;9.222;2023-05-02T09:11:15;18.20;1.00
4054;DHT22;2042;47.956;9.222;2023-05-02T09:16:22;19.40;1.00
4054;DHT22;2042;47.956;9.222;2023-05-02T09:18:53;19.90;1.00
4054;DHT22;2042;47.956;9.222;2023-05-02T09:23:54;20.20;1.00
4054;DHT22;2042;47.956;9.222;2023-05-02T09:26:30;20.10;1.00
4054;DHT22;2042;47.956;9.222;2023-05-02T09:29:00;19.70;1.00
4054;DHT22;2042;47.956;9.222;2023-05-02T09:31:31;19.20;1.00
4054;DHT22;2042;47.956;9.222;2023-05-02T09:34:09;18.40;1.00
4054;DHT22;2042;47.956;9.222;2023-05-02T09:36:46;17.80;1.00
4054;DHT22;2042;47.956;9.222;2023-05-02T09:39:14;17.30;1.00
4054;DHT22;2042;47.956;9.222;2023-05-02T09:41:44;17.10;1.00
4054;DHT22;2042;47.956;9.222;2023-05-02T09:44:12;17.00;1.00
4054;DHT22;2042;47.956;9.222;2023-05-02T09:46:39;17.40;1.00
4054;DHT22;2042;47.956;9.222;2023-05-02T09:49:05;17.90;1.00
4054;DHT22;2042;47.956;9.222;2023-05-02T09:51:31;18.30;1.00
4054;DHT22;2042;47.956;9.222;2023-05-02T09:53:57;18.80;1.00
4054;DHT22;2042;47.956;9.222;2023-05-02T09:56:22;19.30;1.00
4054;DHT22;2042;47.956;9.222;2023-05-02T09:58:48;19.90;1.00
4054;DHT22;2042;47.956;9.222;2023-05-02T10:01:17;20.70;1.00
4054;DHT22;2042;47.956;9.222;2023-05-02T10:03:47;21.30;1.00
4054;DHT22;2042;47.956;9.222;2023-05-02T10:06:14;21.30;1.00
4054;DHT22;2042;47.956;9.222;2023-05-02T10:08:41;21.60;1.00
4054;DHT22;2042;47.956;9.222;2023-05-02T10:11:08;21.90;1.00
4054;DHT22;2042;47.956;9.222;2023-05-02T10:13:37;22.60;1.00
4054;DHT22;2042;47.956;9.222;2023-05-02T10:16:05;23.50;1.00
4054;DHT22;2042;47.956;9.222;2023-05-02T10:19:03;23.70;1.00
4054;DHT22;2042;47.956;9.222;2023-05-02T10:21:33;24.10;1.00
4054;DHT22;2042;47.956;9.222;2023-05-02T10:24:00;25.00;1.00
4054;DHT22;2042;47.956;9.222;2023-05-02T10:26:33;24.40;1.00
4054;DHT22;2042;47.956;9.222;2023-05-02T10:28:59;23.50;1.00
4054;DHT22;2042;47.956;9.222;2023-05-02T10:31:27;22.60;1.00
4054;DHT22;2042;47.956;9.222;2023-05-02T10:33:58;22.00;1.00
4054;DHT22;2042;47.956;9.222;2023-05-02T10:36:26;22.10;1.00
4054;DHT22;2042;47.956;9.222;2023-05-02T10:38:53;22.60;1.00
4054;DHT22;2042;47.956;9.222;2023-05-02T10:41:25;22.30;1.00
4054;DHT22;2042;47.956;9.222;2023-05-02T10:43:52;21.60;1.00
4054;DHT22;2042;47.956;9.222;2023-05-02T10:46:35;21.60;1.00
4054;DHT22;2042;47.956;9.222;2023-05-02T10:49:09;22.10;1.00
4054;DHT22;2042;47.956;9.222;2023-05-02T10:51:38;23.80;1.00
4054;DHT22;2042;47.956;9.222;2023-05-02T10:57:01;26.20;1.00
4054;DHT22;2042;47.956;9.222;2023-05-02T10:59:40;26.00;1.00
4054;DHT22;2042;47.956;9.222;2023-05-02T11:05:05;27.50;1.00
4054;DHT22;2042;47.956;9.222;2023-05-02T11:07:33;28.70;1.00
4054;DHT22;2042;47.956;9.222;2023-05-02T11:10:25;27.90;1.00
4054;DHT22;2042;47.956;9.222;2023-05-02T11:12:56;26.20;1.00
4054;DHT22;2042;47.956;9.222;2023-05-02T11:18:01;24.80;1.00
4054;DHT22;2042;47.956;9.222;2023-05-02T11:20:27;26.00;1.00
4054;DHT22;2042;47.956;9.222;2023-05-02T11:22:54;26.90;1.00
4054;DHT22;2042;47.956;9.222;2023-05-02T11:25:31;27.40;1.00
4054;DHT22;2042;47.956;9.222;2023-05-02T11:27:57;26.90;1.00
4054;DHT22;2042;47.956;9.222;2023-05-02T11:30:40;25.70;1.00
4054;DHT22;2042;47.956;9.222;2023-05-02T11:35:34;23.80;1.00
4054;DHT22;2042;47.956;9.222;2023-05-02T11:38:14;23.60;1.00
4054;DHT22;2042;47.956;9.222;2023-05-02T11:40:47;25.40;1.00
4054;DHT22;2042;47.956;9.222;2023-05-02T11:43:16;27.60;1.00
4054;DHT22;2042;47.956;9.222;2023-05-02T11:45:42;29.20;1.00
4054;DHT22;2042;47.956;9.222;2023-05-02T11:48:10;29.80;1.00
4054;DHT22;2042;47.956;9.222;2023-05-02T11:50:50;29.50;1.00
4054;DHT22;2042;47.956;9.222;2023-05-02T11:53:21;29.60;1.00
4054;DHT22;2042;47.956;9.222;2023-05-02T11:55:50;30.10;1.00
4054;DHT22;2042;47.956;9.222;2023-05-02T11:58:18;29.90;1.00
4054;DHT22;2042;47.956;9.222;2023-05-02T12:00:44;29.60;1.00
4054;DHT22;2042;47.956;9.222;2023-05-02T12:03:31;29.30;1.00
4054;DHT22;2042;47.956;9.222;2023-05-02T12:06:11;29.00;1.00
4054;DHT22;2042;47.956;9.222;2023-05-02T12:08:38;28.50;1.00
4054;DHT22;2042;47.956;9.222;2023-05-02T12:11:04;28.50;1.00
4054;DHT22;2042;47.956;9.222;2023-05-02T12:13:30;28.60;1.00
4054;DHT22;2042;47.956;9.222;2023-05-02T12:15:58;29.60;1.00
4054;DHT22;2042;47.956;9.222;2023-05-02T12:18:24;31.30;1.00
4054;DHT22;2042;47.956;9.222;2023-05-02T12:20:52;32.80;1.00
4054;DHT22;2042;47.956;9.222;2023-05-02T12:23:20;33.70;1.00
4054;DHT22;2042;47.956;9.222;2023-05-02T12:25:47;34.20;1.00
4054;DHT22;2042;47.956;9.222;2023-05-02T12:28:15;34.30;1.00
4054;DHT22;2042;47.956;9.222;2023-05-02T12:30:41;33.30;1.00
4054;DHT22;2042;47.956;9.222;2023-05-02T12:33:07;31.80;1.00
4054;DHT22;2042;47.956;9.222;2023-05-02T12:35:34;31.00;1.00
4054;DHT22;2042;47.956;9.222;2023-05-02T12:38:17;30.80;1.00
4054;DHT22;2042;47.956;9.222;2023-05-02T12:40:47;30.70;1.00
4054;DHT22;2042;47.956;9.222;2023-05-02T12:43:13;30.70;1.00
4054;DHT22;2042;47.956;9.222;2023-05-02T12:45:39;31.20;1.00
4054;DHT22;2042;47.956;9.222;2023-05-02T12:48:24;32.10;1.00
4054;DHT22;2042;47.956;9.222;2023-05-02T12:50:51;31.60;1.00
4054;DHT22;2042;47.956;9.222;2023-05-02T12:53:40;30.90;1.00
4054;DHT22;2042;47.956;9.222;2023-05-02T12:56:06;29.30;1.00
4054;DHT22;2042;47.956;9.222;2023-05-02T12:58:43;27.40;1.00
4054;DHT22;2042;47.956;9.222;2023-05-02T13:01:09;25.90;1.00
4054;DHT22;2042;47.956;9.222;2023-05-02T13:03:35;25.10;1.00
4054;DHT22;2042;47.956;9.222;2023-05-02T13:06:01;24.50;1.00
4054;DHT22;2042;47.956;9.222;2023-05-02T13:08:26;23.90;1.00
4054;DHT22;2042;47.956;9.222;2023-05-02T13:10:52;23.40;1.00
4054;DHT22;2042;47.956;9.222;2023-05-02T13:13:18;23.10;1.00
4054;DHT22;2042;47.956;9.222;2023-05-02T13:15:44;24.20;1.00
4054;DHT22;2042;47.956;9.222;2023-05-02T13:18:09;26.00;1.00
4054;DHT22;2042;47.956;9.222;2023-05-02T13:20:35;27.70;1.00
4054;DHT22;2042;47.956;9.222;2023-05-02T13:23:01;28.50;1.00
4054;DHT22;2042;47.956;9.222;2023-05-02T13:25:26;28.20;1.00
4054;DHT22;2042;47.956;9.222;2023-05-02T13:27:52;27.40;1.00
4054;DHT22;2042;47.956;9.222;2023-05-02T13:30:18;26.20;1.00
4054;DHT22;2042;47.956;9.222;2023-05-02T13:32:43;24.90;1.00
4054;DHT22;2042;47.956;9.222;2023-05-02T13:35:09;23.90;1.00
4054;DHT22;2042;47.956;9.222;2023-05-02T13:37:38;23.20;1.00
4054;DHT22;2042;47.956;9.222;2023-05-02T13:40:05;22.70;1.00
4054;DHT22;2042;47.956;9.222;2023-05-02T13:42:31;22.30;1.00
4054;DHT22;2042;47.956;9.222;2023-05-02T13:45:03;23.00;1.00
4054;DHT22;2042;47.956;9.222;2023-05-02T13:47:30;24.10;1.00
4054;DHT22;2042;47.956;9.222;2023-05-02T13:49:56;24.50;1.00
4054;DHT22;2042;47.956;9.222;2023-05-02T13:52:22;25.40;1.00
4054;DHT22;2042;47.956;9.222;2023-05-02T13:54:47;26.60;1.00
4054;DHT22;2042;47.956;9.222;2023-05-02T13:57:13;27.10;1.00
4054;DHT22;2042;47.956;9.222;2023-05-02T13:59:38;26.40;1.00
4054;DHT22;2042;47.956;9.222;2023-05-02T14:02:04;25.20;1.00
4054;DHT22;2042;47.956;9.222;2023-05-02T14:04:30;24.20;1.00
4054;DHT22;2042;47.956;9.222;2023-05-02T14:06:55;23.30;1.00
4054;DHT22;2042;47.956;9.222;2023-05-02T14:09:21;22.60;1.00
4054;DHT22;2042;47.956;9.222;2023-05-02T14:11:47;21.80;1.00
4054;DHT22;2042;47.956;9.222;2023-05-02T14:14:13;21.20;1.00
4054;DHT22;2042;47.956;9.222;2023-05-02T14:16:39;20.80;1.00
4054;DHT22;2042;47.956;9.222;2023-05-02T14:19:05;20.40;1.00
4054;DHT22;2042;47.956;9.222;2023-05-02T14:21:30;20.30;1.00
4054;DHT22;2042;47.956;9.222;2023-05-02T14:23:56;20.20;1.00
4054;DHT22;2042;47.956;9.222;2023-05-02T14:26:22;20.10;1.00
4054;DHT22;2042;47.956;9.222;2023-05-02T14:28:48;20.60;1.00
4054;DHT22;2042;47.956;9.222;2023-05-02T14:31:14;21.00;1.00
4054;DHT22;2042;47.956;9.222;2023-05-02T14:33:39;21.20;1.00
4054;DHT22;2042;47.956;9.222;2023-05-02T14:36:05;21.20;1.00
4054;DHT22;2042;47.956;9.222;2023-05-02T14:38:31;20.90;1.00
4054;DHT22;2042;47.956;9.222;2023-05-02T14:40:57;20.70;1.00
4054;DHT22;2042;47.956;9.222;2023-05-02T14:43:22;20.50;1.00
4054;DHT22;2042;47.956;9.222;2023-05-02T14:45:48;20.40;1.00
4054;DHT22;2042;47.956;9.222;2023-05-02T14:48:14;20.50;1.00
4054;DHT22;2042;47.956;9.222;2023-05-02T14:50:42;20.40;1.00
4054;DHT22;2042;47.956;9.222;2023-05-02T14:53:08;20.40;1.00
4054;DHT22;2042;47.956;9.222;2023-05-02T14:55:40;20.50;1.00
4054;DHT22;2042;47.956;9.222;2023-05-02T14:58:06;20.60;1.00
4054;DHT22;2042;47.956;9.222;2023-05-02T15:00:36;20.60;1.00
4054;DHT22;2042;47.956;9.222;2023-05-02T15:03:06;20.60;1.00
4054;DHT22;2042;47.956;9.222;2023-05-02T15:05:32;20.80;1.00
4054;DHT22;2042;47.956;9.222;2023-05-02T15:07:58;21.30;1.00
4054;DHT22;2042;47.956;9.222;2023-05-02T15:10:24;22.00;1.00
4054;DHT22;2042;47.956;9.222;2023-05-02T15:12:50;22.50;1.00
4054;DHT22;2042;47.956;9.222;2023-05-02T15:15:16;23.00;1.00
4054;DHT22;2042;47.956;9.222;2023-05-02T15:17:43;23.20;1.00
4054;DHT22;2042;47.956;9.222;2023-05-02T15:20:09;23.00;1.00
4054;DHT22;2042;47.956;9.222;2023-05-02T15:22:35;22.60;1.00
4054;DHT22;2042;47.956;9.222;2023-05-02T15:25:00;22.00;1.00
4054;DHT22;2042;47.956;9.222;2023-05-02T15:27:26;21.40;1.00
4054;DHT22;2042;47.956;9.222;2023-05-02T15:29:52;20.80;1.00
4054;DHT22;2042;47.956;9.222;2023-05-02T15:32:17;20.20;1.00
4054;DHT22;2042;47.956;9.222;2023-05-02T15:34:43;19.10;1.00
4054;DHT22;2042;47.956;9.222;2023-05-02T15:37:09;17.90;1.00
4054;DHT22;2042;47.956;9.222;2023-05-02T15:39:35;17.00;1.00
4054;DHT22;2042;47.956;9.222;2023-05-02T15:42:04;16.50;1.00
4054;DHT22;2042;47.956;9.222;2023-05-02T15:44:36;16.10;1.00
4054;DHT22;2042;47.956;9.222;2023-05-02T15:47:03;16.00;1.00
4054;DHT22;2042;47.956;9.222;2023-05-02T15:49:28;15.90;1.00
4054;DHT22;2042;47.956;9.222;2023-05-02T15:52:01;15.80;1.00
4054;DHT22;2042;47.956;9.222;2023-05-02T15:54:28;15.60;1.00
4054;DHT22;2042;47.956;9.222;2023-05-02T15:56:54;15.50;1.00
4054;DHT22;2042;47.956;9.222;2023-05-02T15:59:20;15.30;1.00
4054;DHT22;2042;47.956;9.222;2023-05-02T16:01:45;15.10;1.00
4054;DHT22;2042;47.956;9.222;2023-05-02T16:04:11;15.10;1.00
4054;DHT22;2042;47.956;9.222;2023-05-02T16:06:37;15.00;1.00
4054;DHT22;2042;47.956;9.222;2023-05-02T16:09:05;14.80;1.00
4054;DHT22;2042;47.956;9.222;2023-05-02T16:11:31;14.60;1.00
4054;DHT22;2042;47.956;9.222;2023-05-02T16:13:57;14.50;1.00
4054;DHT22;2042;47.956;9.222;2023-05-02T16:16:23;14.40;1.00
4054;DHT22;2042;47.956;9.222;2023-05-02T16:18:48;14.30;1.00
4054;DHT22;2042;47.956;9.222;2023-05-02T16:21:14;14.20;1.00
4054;DHT22;2042;47.956;9.222;2023-05-02T16:23:41;14.10;1.00
4054;DHT22;2042;47.956;9.222;2023-05-02T16:26:06;14.10;1.00
4054;DHT22;2042;47.956;9.222;2023-05-02T16:28:32;14.10;1.00
4054;DHT22;2042;47.956;9.222;2023-05-02T16:30:58;14.00;1.00
4054;DHT22;2042;47.956;9.222;2023-05-02T16:33:29;13.60;1.00
4054;DHT22;2042;47.956;9.222;2023-05-02T16:36:02;13.20;1.00
4054;DHT22;2042;47.956;9.222;2023-05-02T16:38:28;12.80;1.00
4054;DHT22;2042;47.956;9.222;2023-05-02T16:40:53;12.50;1.00
4054;DHT22;2042;47.956;9.222;2023-05-02T16:43:19;12.20;1.00
4054;DHT22;2042;47.956;9.222;2023-05-02T16:45:45;12.00;1.00
4054;DHT22;2042;47.956;9.222;2023-05-02T16:48:11;11.90;1.00
4054;DHT22;2042;47.956;9.222;2023-05-02T16:50:37;12.00;1.00
4054;DHT22;2042;47.956;9.222;2023-05-02T16:53:03;12.20;1.00
4054;DHT22;2042;47.956;9.222;2023-05-02T16:55:28;12.20;1.00
4054;DHT22;2042;47.956;9.222;2023-05-02T16:57:54;12.00;1.00
4054;DHT22;2042;47.956;9.222;2023-05-02T17:00:20;12.00;1.00
4054;DHT22;2042;47.956;9.222;2023-05-02T17:02:46;11.90;1.00
4054;DHT22;2042;47.956;9.222;2023-05-02T17:05:11;11.80;1.00